Time;durP1;ratioP1;P1;durP2;ratioP2;P2;SDS_P1;SDS_P2;PMS_P1;PMS_P2;Temp;Humidity;BMP_temperature;BMP_pressure;BME280_temperature;BME280_humidity;BME280_pressure;Samples;Min_cycle;Max_cycle;Signal;HPM_P1;HPM_P2
2023/07/30 00:01:01;;;;;;;2.65;1.88;;;;;;;18.13;87.84;92977.03;5066090;28;20048;-72
2023/07/30 00:03:27;;;;;;;2.35;1.42;;;;;;;18.02;88.49;92969.19;5065657;28;20048;-72
2023/07/30 00:05:55;;;;;;;2.95;1.73;;;;;;;17.95;88.28;92965.34;5061221;28;20040;-73
2023/07/30 00:08:21;;;;;;;2.58;1.55;;;;;;;18.05;88.81;92972.34;5063642;28;20121;-73
2023/07/30 00:10:50;;;;;;;3.92;1.73;;;;;;;17.98;88.95;92975.19;5067801;28;20090;-73
2023/07/30 00:13:17;;;;;;;3.78;1.90;;;;;;;17.91;89.68;92980.66;5063399;28;20084;-72
2023/07/30 00:15:46;;;;;;;2.58;1.63;;;;;;;17.83;89.87;92981.19;5068404;28;20056;-72
2023/07/30 00:18:13;;;;;;;2.60;1.83;;;;;;;17.76;90.09;92981.44;5063544;28;20497;-72
2023/07/30 00:20:39;;;;;;;2.97;1.70;;;;;;;17.75;90.04;92983.28;5064603;28;20421;-72
2023/07/30 00:23:06;;;;;;;2.97;2.00;;;;;;;17.76;90.14;92984.03;5069215;28;20102;-72
2023/07/30 00:25:33;;;;;;;4.18;1.67;;;;;;;17.72;90.25;92981.19;5060012;28;20514;-72
2023/07/30 00:28:01;;;;;;;3.85;1.77;;;;;;;17.75;91.29;92979.88;5066218;28;20045;-72
2023/07/30 00:30:27;;;;;;;3.65;1.98;;;;;;;17.73;91.19;92981.97;5062372;28;20110;-72
2023/07/30 00:32:54;;;;;;;2.92;1.38;;;;;;;17.71;90.74;92976.22;5066726;28;20048;-72
2023/07/30 00:35:22;;;;;;;3.35;2.03;;;;;;;17.68;90.75;92972.34;5062093;28;20126;-72
2023/07/30 00:37:48;;;;;;;2.75;1.80;;;;;;;17.60;91.41;92976.22;5067154;28;20049;-72
2023/07/30 00:40:15;;;;;;;3.22;1.88;;;;;;;17.56;91.65;92974.41;5061908;28;20053;-72
2023/07/30 00:42:42;;;;;;;3.38;2.00;;;;;;;17.49;91.81;92972.06;5067065;28;20464;-72
2023/07/30 00:45:11;;;;;;;3.22;1.65;;;;;;;17.45;92.01;92976.22;5063254;28;20045;-72
2023/07/30 00:47:39;;;;;;;3.45;2.00;;;;;;;17.43;91.67;92967.91;5063144;28;20453;-72
2023/07/30 00:50:07;;;;;;;3.53;1.85;;;;;;;17.45;92.59;92981.44;5064777;28;20049;-72
2023/07/30 00:52:34;;;;;;;3.72;2.28;;;;;;;17.43;92.04;92975.69;5066378;28;20048;-72
2023/07/30 00:55:03;;;;;;;3.08;1.80;;;;;;;17.45;92.62;92974.41;5063015;28;20036;-72
2023/07/30 00:57:32;;;;;;;3.67;1.80;;;;;;;17.44;92.77;92966.88;5060645;28;20147;-72
2023/07/30 00:59:59;;;;;;;2.83;2.10;;;;;;;17.36;93.09;92963.75;5064753;28;20055;-72
2023/07/30 01:02:28;;;;;;;3.60;1.90;;;;;;;17.42;92.32;92974.94;5064419;28;20052;-72
2023/07/30 01:04:55;;;;;;;3.13;1.83;;;;;;;17.36;92.25;92971.53;5060830;28;20103;-72
2023/07/30 01:07:22;;;;;;;4.22;2.08;;;;;;;17.38;92.81;92973.88;5062503;28;20048;-72
2023/07/30 01:09:49;;;;;;;6.70;2.85;;;;;;;17.35;93.67;92979.56;5058681;28;20041;-72
2023/07/30 01:12:15;;;;;;;5.15;2.03;;;;;;;17.29;93.64;92967.63;5060889;28;20049;-72
2023/07/30 01:14:42;;;;;;;4.03;1.95;;;;;;;17.29;94.37;92967.63;5065483;28;20563;-72
2023/07/30 01:17:10;;;;;;;4.30;2.13;;;;;;;17.27;94.15;92970.47;5066567;28;20092;-72
2023/07/30 01:19:38;;;;;;;6.93;2.53;;;;;;;17.25;93.80;92972.56;5067236;28;20056;-72
2023/07/30 01:22:06;;;;;;;3.22;1.95;;;;;;;17.25;94.12;92964.00;5061603;28;20049;-72
2023/07/30 01:24:33;;;;;;;3.25;1.95;;;;;;;17.26;94.55;92971.50;5065310;28;20623;-72
2023/07/30 01:27:04;;;;;;;3.45;2.25;;;;;;;17.16;94.61;92956.72;5067243;28;20045;-72
2023/07/30 01:29:37;;;;;;;3.63;1.88;;;;;;;17.22;94.55;92963.47;5059220;28;20048;-72
2023/07/30 01:32:08;;;;;;;4.15;2.30;;;;;;;17.18;94.22;92959.81;5065451;28;20041;-72
2023/07/30 01:34:37;;;;;;;3.95;2.67;;;;;;;17.23;94.66;92964.25;5066071;28;20517;-72
2023/07/30 01:37:09;;;;;;;3.70;2.15;;;;;;;17.18;96.09;92966.84;5061435;28;20065;-72
2023/07/30 01:39:38;;;;;;;3.35;2.35;;;;;;;17.14;96.55;92970.97;5061091;28;20206;-72
2023/07/30 01:42:05;;;;;;;3.75;2.42;;;;;;;17.17;95.67;92970.47;5062637;28;20508;-72
2023/07/30 01:44:31;;;;;;;4.43;2.30;;;;;;;17.21;95.03;92966.31;5063123;28;20053;-72
2023/07/30 01:46:58;;;;;;;3.67;2.10;;;;;;;17.25;95.00;92975.16;5059840;28;20102;-72
2023/07/30 01:49:25;;;;;;;3.03;1.80;;;;;;;17.22;94.74;92975.69;5065577;28;20110;-72
2023/07/30 01:51:52;;;;;;;3.03;2.08;;;;;;;17.21;94.57;92972.28;5063526;28;20113;-72
2023/07/30 01:54:20;;;;;;;3.42;1.95;;;;;;;17.18;94.84;92975.38;5063874;28;20619;-72
2023/07/30 01:56:45;;;;;;;4.90;2.10;;;;;;;17.13;96.00;92977.97;5060503;28;20044;-72
2023/07/30 01:59:12;;;;;;;3.05;1.60;;;;;;;17.09;96.30;92972.50;5066313;28;20061;-72
2023/07/30 02:01:39;;;;;;;5.85;2.30;;;;;;;17.09;95.54;92982.13;5063678;28;20854;-72
2023/07/30 02:04:06;;;;;;;2.67;1.83;;;;;;;17.05;94.56;92981.88;5060058;28;20048;-72
2023/07/30 02:06:32;;;;;;;3.70;2.20;;;;;;;17.00;95.72;92989.59;5063945;28;20064;-72
2023/07/30 02:08:59;;;;;;;3.35;2.40;;;;;;;16.90;96.42;92986.97;5061869;28;20147;-72
2023/07/30 02:11:28;;;;;;;4.80;2.30;;;;;;;16.83;96.77;92987.19;5064068;28;20109;-72
2023/07/30 02:13:55;;;;;;;3.58;2.30;;;;;;;16.80;96.37;92987.72;5066532;28;20056;-72
2023/07/30 02:16:21;;;;;;;4.10;2.60;;;;;;;16.72;97.03;92988.19;5058993;28;20106;-72
2023/07/30 02:18:48;;;;;;;5.88;2.35;;;;;;;16.65;97.43;92989.22;5060217;28;20049;-72
2023/07/30 02:21:15;;;;;;;3.75;2.22;;;;;;;16.58;98.21;92987.88;5060820;28;20512;-72
2023/07/30 02:23:41;;;;;;;6.18;2.80;;;;;;;16.49;98.91;92979.78;5061670;28;20045;-72
2023/07/30 02:26:08;;;;;;;3.72;2.58;;;;;;;16.48;98.90;92981.59;5065306;28;20054;-72
2023/07/30 02:28:36;;;;;;;4.78;2.70;;;;;;;16.48;98.62;92989.38;5063348;28;20044;-72
2023/07/30 02:31:03;;;;;;;4.20;2.72;;;;;;;16.45;98.88;92987.28;5063180;28;20504;-72
2023/07/30 02:33:29;;;;;;;3.22;2.35;;;;;;;16.47;98.93;92984.47;5064887;28;20091;-72
2023/07/30 02:35:56;;;;;;;3.80;2.20;;;;;;;16.48;98.25;92983.41;5066900;28;20094;-71
2023/07/30 02:38:23;;;;;;;7.15;2.17;;;;;;;16.48;97.76;92989.38;5064790;28;20045;-72
2023/07/30 02:40:50;;;;;;;4.28;2.60;;;;;;;16.47;97.31;92987.81;5060681;28;20053;-72
2023/07/30 02:43:16;;;;;;;4.95;2.50;;;;;;;16.42;97.61;92987.78;5061025;28;20118;-72
2023/07/30 02:45:48;;;;;;;3.50;2.08;;;;;;;16.40;97.98;92990.63;5059180;28;20071;-72
2023/07/30 02:48:14;;;;;;;7.78;3.08;;;;;;;16.32;98.36;92993.69;5066685;28;20045;-72
2023/07/30 02:50:41;;;;;;;4.65;2.40;;;;;;;16.34;98.32;92989.03;5060724;28;20044;-72
2023/07/30 02:53:08;;;;;;;4.95;2.60;;;;;;;16.33;99.63;92989.31;5056117;28;20048;-72
2023/07/30 02:55:34;;;;;;;4.03;2.30;;;;;;;16.30;99.08;92993.19;5063662;28;20490;-71
2023/07/30 02:58:01;;;;;;;12.57;2.97;;;;;;;16.26;99.65;92997.28;5063247;28;20102;-72
2023/07/30 03:00:28;;;;;;;7.45;2.90;;;;;;;16.24;99.93;92994.94;5059652;28;20060;-72
2023/07/30 03:02:57;;;;;;;6.35;2.60;;;;;;;16.21;100.00;92995.47;5065863;28;20437;-72
2023/07/30 03:05:24;;;;;;;6.43;3.10;;;;;;;16.19;100.00;92997.50;5063104;28;20044;-72
2023/07/30 03:07:50;;;;;;;4.45;2.45;;;;;;;16.15;100.00;92997.22;5063015;28;20048;-72
2023/07/30 03:10:17;;;;;;;4.38;2.30;;;;;;;16.15;100.00;92999.81;5061717;28;20123;-72
2023/07/30 03:12:44;;;;;;;7.80;2.85;;;;;;;16.15;100.00;92999.81;5066756;28;20098;-72
2023/07/30 03:15:11;;;;;;;5.15;2.72;;;;;;;16.19;100.00;93007.09;5061894;28;20048;-71
2023/07/30 03:17:37;;;;;;;5.63;2.80;;;;;;;16.22;100.00;92996.22;5062036;28;20573;-72
2023/07/30 03:20:08;;;;;;;3.80;2.45;;;;;;;16.26;99.84;93000.66;5059064;28;20134;-71
2023/07/30 03:22:35;;;;;;;6.57;3.17;;;;;;;16.29;99.50;92992.38;5057070;28;20060;-71
2023/07/30 03:25:02;;;;;;;6.72;2.20;;;;;;;16.25;100.00;92982.78;5063252;28;20056;-71
2023/07/30 03:27:28;;;;;;;6.68;2.28;;;;;;;16.19;99.78;92976.78;5058363;28;20052;-71
2023/07/30 03:29:55;;;;;;;3.40;2.40;;;;;;;16.27;98.78;92991.06;5061896;28;20113;-72
2023/07/30 03:32:22;;;;;;;5.85;2.83;;;;;;;16.25;98.47;92995.75;5062799;28;20052;-72
2023/07/30 03:34:49;;;;;;;5.22;2.53;;;;;;;16.17;99.79;92995.16;5061736;28;20094;-72
2023/07/30 03:37:17;;;;;;;3.35;2.35;;;;;;;16.19;99.32;92986.38;5063457;28;20439;-72
2023/07/30 03:39:43;;;;;;;4.57;2.58;;;;;;;16.16;99.64;92996.19;5064222;28;20447;-72
2023/07/30 03:42:10;;;;;;;3.45;2.35;;;;;;;16.19;99.69;92991.56;5061831;28;20094;-71
2023/07/30 03:44:37;;;;;;;3.53;2.20;;;;;;;16.16;99.79;92991.00;5064020;28;20094;-72
2023/07/30 03:47:04;;;;;;;3.72;2.58;;;;;;;16.17;99.50;92997.75;5063284;28;20045;-71
2023/07/30 03:49:31;;;;;;;3.47;2.17;;;;;;;16.15;99.52;92997.22;5063489;28;20055;-72
2023/07/30 03:51:57;;;;;;;9.93;2.65;;;;;;;16.14;99.28;92998.25;5063524;28;20049;-71
2023/07/30 03:54:25;;;;;;;4.55;2.58;;;;;;;16.14;99.38;92997.47;5061370;28;20186;-71
2023/07/30 03:56:52;;;;;;;8.40;3.60;;;;;;;16.12;99.46;92997.72;5061442;28;20075;-72
2023/07/30 03:59:19;;;;;;;4.47;2.55;;;;;;;16.12;99.15;93000.31;5061237;28;20049;-71
2023/07/30 04:01:45;;;;;;;6.15;2.30;;;;;;;16.11;100.00;93006.53;5061044;28;20129;-71
2023/07/30 04:04:12;;;;;;;5.72;2.90;;;;;;;16.11;100.00;93003.16;5060696;28;20090;-72
2023/07/30 04:06:39;;;;;;;5.15;3.25;;;;;;;16.12;100.00;92999.53;5060696;28;20493;-72
2023/07/30 04:09:06;;;;;;;4.35;2.63;;;;;;;16.15;100.00;93001.63;5051748;28;20101;-71
2023/07/30 04:11:34;;;;;;;6.43;2.30;;;;;;;16.19;100.00;93002.69;5061542;28;20105;-71
2023/07/30 04:14:00;;;;;;;3.88;2.60;;;;;;;16.22;100.00;93002.19;5061559;28;20614;-72
2023/07/30 04:16:27;;;;;;;4.55;2.20;;;;;;;16.28;100.00;93008.19;5060592;28;20094;-72
2023/07/30 04:18:54;;;;;;;4.15;2.72;;;;;;;16.32;99.68;93011.84;5059358;28;20772;-72
2023/07/30 04:21:20;;;;;;;9.77;3.75;;;;;;;16.38;100.00;93007.50;5059581;28;20118;-72
2023/07/30 04:23:48;;;;;;;9.30;4.15;;;;;;;16.42;100.00;93011.13;5058655;28;20048;-72
2023/07/30 04:26:14;;;;;;;7.00;2.80;;;;;;;16.47;98.81;93015.56;5059107;28;20049;-72
2023/07/30 04:28:42;;;;;;;9.75;3.22;;;;;;;16.52;99.52;93013.00;5059338;28;20671;-72
2023/07/30 04:31:09;;;;;;;6.68;3.30;;;;;;;16.56;99.56;93007.06;5059060;28;20609;-71
2023/07/30 04:33:36;;;;;;;6.05;2.85;;;;;;;16.60;99.75;93006.53;5057800;28;20143;-71
2023/07/30 04:36:03;;;;;;;4.75;2.72;;;;;;;16.63;98.17;93009.44;5063537;28;20053;-72
2023/07/30 04:38:30;;;;;;;4.88;2.88;;;;;;;16.73;98.78;93016.47;5064026;28;20506;-72
2023/07/30 04:40:58;;;;;;;6.25;3.67;;;;;;;16.82;98.21;93014.94;5064956;28;20049;-72
2023/07/30 04:43:25;;;;;;;3.78;2.13;;;;;;;16.89;98.09;93016.53;5064750;28;20052;-72
2023/07/30 04:45:53;;;;;;;4.05;2.67;;;;;;;16.99;96.42;93024.34;5068695;28;20101;-72
2023/07/30 04:48:20;;;;;;;4.65;2.55;;;;;;;16.98;97.61;93020.19;5064520;28;20049;-72
2023/07/30 04:50:46;;;;;;;3.53;2.40;;;;;;;17.02;97.63;93021.25;5066034;28;20530;-72
2023/07/30 04:53:13;;;;;;;4.97;3.00;;;;;;;17.02;98.99;93023.06;5068655;28;20052;-72
2023/07/30 04:55:40;;;;;;;5.05;2.90;;;;;;;17.04;100.00;93018.44;5066659;28;20158;-72
2023/07/30 04:58:07;;;;;;;4.53;2.67;;;;;;;17.03;100.00;93020.25;5069277;28;20109;-72
2023/07/30 05:00:33;;;;;;;4.07;2.72;;;;;;;17.13;100.00;93019.50;5068997;28;20510;-72
2023/07/30 05:03:01;;;;;;;4.53;2.80;;;;;;;17.17;100.00;93019.78;5065593;28;20041;-72
2023/07/30 05:05:28;;;;;;;5.57;3.33;;;;;;;17.23;100.00;93016.16;5065101;28;20090;-72
2023/07/30 05:07:55;;;;;;;3.85;2.65;;;;;;;17.15;99.10;93019.25;5069042;28;20354;-72
2023/07/30 05:10:21;;;;;;;4.13;2.47;;;;;;;17.15;100.00;93011.47;5065282;28;20583;-72
2023/07/30 05:12:48;;;;;;;3.00;2.60;;;;;;;17.25;98.25;93014.09;5066559;28;20125;-72
2023/07/30 05:15:15;;;;;;;3.15;2.10;;;;;;;17.35;100.00;93023.72;5068732;28;20045;-71
2023/07/30 05:17:42;;;;;;;4.18;2.70;;;;;;;17.47;100.00;93018.28;5068777;28;20056;-72
2023/07/30 05:20:11;;;;;;;3.13;2.13;;;;;;;17.56;98.44;93011.56;5066248;28;20085;-71
2023/07/30 05:22:38;;;;;;;3.50;2.25;;;;;;;17.66;96.37;93015.19;5068055;28;20387;-71
2023/07/30 05:25:05;;;;;;;3.95;2.53;;;;;;;17.72;95.11;93004.56;5064406;28;20089;-72
2023/07/30 05:27:32;;;;;;;4.57;2.30;;;;;;;17.96;92.77;93013.66;5067872;28;20529;-75
2023/07/30 05:29:59;;;;;;;3.63;2.28;;;;;;;18.10;90.85;93013.94;5065949;28;20043;-73
2023/07/30 05:32:26;;;;;;;3.80;2.20;;;;;;;18.30;89.72;93013.91;5068773;28;20048;-74
2023/07/30 05:34:53;;;;;;;5.10;3.28;;;;;;;18.49;89.11;93020.38;5065062;28;20105;-71
2023/07/30 05:37:21;;;;;;;8.32;3.33;;;;;;;18.69;91.41;93016.94;5068351;28;20056;-71
2023/07/30 05:39:48;;;;;;;6.65;3.25;;;;;;;18.79;89.99;93022.13;5064762;28;20045;-71
2023/07/30 05:42:14;;;;;;;8.98;4.32;;;;;;;18.98;89.77;93020.78;5065790;28;20044;-71
2023/07/30 05:44:41;;;;;;;5.70;3.30;;;;;;;19.11;88.87;93016.84;5067639;28;20059;-71
2023/07/30 05:47:08;;;;;;;7.38;4.07;;;;;;;19.31;88.89;93021.16;5064703;28;20102;-71
2023/07/30 05:49:34;;;;;;;5.70;3.22;;;;;;;19.47;86.85;93012.22;5067358;28;20601;-72
2023/07/30 05:52:01;;;;;;;5.07;3.30;;;;;;;19.70;86.31;93017.81;5066786;28;20071;-72
2023/07/30 05:54:29;;;;;;;6.45;3.03;;;;;;;19.87;85.89;93027.06;5066067;28;20040;-72
2023/07/30 05:56:56;;;;;;;6.00;3.22;;;;;;;20.03;84.96;93018.13;5067752;28;20094;-71
2023/07/30 05:59:23;;;;;;;5.20;3.13;;;;;;;20.19;81.46;93014.59;5067631;28;20502;-71
2023/07/30 06:01:50;;;;;;;4.63;3.00;;;;;;;20.28;79.86;93015.56;5067542;28;20469;-72
2023/07/30 06:04:17;;;;;;;4.20;2.72;;;;;;;20.55;76.42;93022.88;5066176;28;20515;-71
2023/07/30 06:06:43;;;;;;;5.70;3.03;;;;;;;20.75;77.06;93017.72;5067744;28;20044;-71
2023/07/30 06:09:11;;;;;;;5.32;2.60;;;;;;;20.85;77.82;92995.94;5066530;28;21329;-71
2023/07/30 06:11:39;;;;;;;4.32;2.58;;;;;;;21.33;75.89;93024.63;5065534;28;20044;-71
2023/07/30 06:14:06;;;;;;;6.55;2.78;;;;;;;21.50;72.70;93028.59;5067456;28;20556;-72
2023/07/30 06:16:32;;;;;;;6.28;2.90;;;;;;;21.65;72.31;93027.59;5067369;28;20048;-72
2023/07/30 06:18:59;;;;;;;6.28;2.90;;;;;;;21.85;71.67;93028.41;5060358;28;20526;-72
2023/07/30 06:21:26;;;;;;;6.35;2.38;;;;;;;22.14;69.97;93020.34;5066148;28;20544;-72
2023/07/30 06:23:52;;;;;;;4.85;2.40;;;;;;;22.30;68.14;93012.25;5067018;28;20048;-72
2023/07/30 06:26:19;;;;;;;4.70;2.20;;;;;;;22.69;69.58;93018.16;5066363;28;20109;-72
2023/07/30 06:28:47;;;;;;;5.90;2.40;;;;;;;23.01;65.88;93015.72;5067438;28;20166;-72
2023/07/30 06:31:14;;;;;;;6.75;2.08;;;;;;;23.14;63.50;93014.16;5065170;28;20121;-72
2023/07/30 06:33:41;;;;;;;5.75;2.38;;;;;;;23.18;61.71;93007.25;5064129;28;20052;-72
2023/07/30 06:36:08;;;;;;;5.03;2.08;;;;;;;23.49;62.37;93004.00;5064176;28;20080;-72
2023/07/30 06:38:34;;;;;;;4.82;2.67;;;;;;;23.72;59.81;93010.06;5067639;28;20055;-71
2023/07/30 06:41:01;;;;;;;6.20;2.97;;;;;;;23.99;59.78;93007.63;5066888;28;20049;-72
2023/07/30 06:43:28;;;;;;;6.18;2.85;;;;;;;24.16;59.30;93009.59;5062870;28;20044;-72
2023/07/30 06:45:56;;;;;;;4.03;2.10;;;;;;;24.39;57.12;93004.34;5066031;28;20053;-71
2023/07/30 06:48:22;;;;;;;5.85;2.03;;;;;;;24.50;54.90;92982.00;5067141;28;20040;-71
2023/07/30 06:50:49;;;;;;;6.93;2.15;;;;;;;24.82;55.87;92990.59;5066950;28;20480;-71
2023/07/30 06:53:16;;;;;;;4.70;2.17;;;;;;;25.11;56.53;92987.75;5065821;28;20118;-71
2023/07/30 06:55:43;;;;;;;4.22;1.90;;;;;;;25.43;54.15;92989.19;5066398;28;20041;-71
2023/07/30 06:58:09;;;;;;;4.03;1.95;;;;;;;25.56;52.24;92987.53;5066814;28;20064;-71
2023/07/30 07:00:36;;;;;;;4.78;2.13;;;;;;;25.92;53.82;92977.72;5065093;28;20604;-71
2023/07/30 07:03:04;;;;;;;4.88;2.22;;;;;;;26.21;52.80;92986.03;5066251;28;20048;-71
2023/07/30 07:05:31;;;;;;;6.55;2.28;;;;;;;26.40;51.83;92981.22;5064128;28;20058;-71
2023/07/30 07:07:57;;;;;;;5.50;2.85;;;;;;;26.74;51.57;92975.38;5060427;28;20044;-72
2023/07/30 07:10:24;;;;;;;8.38;3.90;;;;;;;27.04;49.84;92976.13;5066687;28;20110;-72
2023/07/30 07:12:50;;;;;;;8.82;2.95;;;;;;;27.35;50.69;92980.28;5065414;28;20053;-72
2023/07/30 07:15:17;;;;;;;11.13;4.78;;;;;;;27.40;49.59;92970.66;5063315;28;20058;-72
2023/07/30 07:17:44;;;;;;;18.05;4.43;;;;;;;27.50;49.31;92967.63;5064286;28;20514;-72
2023/07/30 07:20:12;;;;;;;13.88;4.70;;;;;;;27.69;48.34;92966.41;5062868;28;20071;-72
2023/07/30 07:22:39;;;;;;;10.68;3.78;;;;;;;27.98;49.72;92952.34;5064932;28;20064;-72
2023/07/30 07:25:06;;;;;;;12.80;3.88;;;;;;;27.50;48.57;92966.84;5063306;28;20097;-72
2023/07/30 07:27:33;;;;;;;15.13;4.20;;;;;;;27.46;49.31;92964.84;5065626;28;20052;-72
2023/07/30 07:30:00;;;;;;;19.88;4.78;;;;;;;27.73;50.19;92967.31;5062862;28;20052;-71
2023/07/30 07:32:27;;;;;;;10.88;4.65;;;;;;;27.82;48.64;92960.06;5064195;28;20048;-71
2023/07/30 07:34:53;;;;;;;14.07;4.68;;;;;;;28.46;49.07;92962.56;5065371;28;20044;-71
2023/07/30 07:37:21;;;;;;;15.63;5.20;;;;;;;28.61;46.68;92961.13;5066459;28;20050;-71
2023/07/30 07:39:48;;;;;;;16.83;4.65;;;;;;;28.62;47.18;92951.34;5064960;28;20056;-71
2023/07/30 07:42:15;;;;;;;18.77;6.28;;;;;;;28.46;47.09;92961.81;5064828;28;20048;-71
2023/07/30 07:44:43;;;;;;;17.10;6.22;;;;;;;28.05;47.02;92959.69;5064555;28;20098;-72
2023/07/30 07:47:10;;;;;;;14.45;4.47;;;;;;;28.63;47.45;92956.31;5064543;28;20128;-70
2023/07/30 07:49:37;;;;;;;9.90;3.90;;;;;;;28.45;45.98;92954.97;5065961;28;20510;-70
2023/07/30 07:52:04;;;;;;;15.52;3.72;;;;;;;28.71;46.41;92952.00;5064858;28;20045;-70
2023/07/30 07:54:32;;;;;;;14.75;4.50;;;;;;;28.77;47.08;92949.91;5066132;28;20059;-70
2023/07/30 07:56:59;;;;;;;13.00;4.80;;;;;;;28.31;48.41;92950.00;5061783;28;21379;-70
2023/07/30 07:59:27;;;;;;;18.80;5.10;;;;;;;28.54;46.52;92951.13;5064210;28;20048;-70
2023/07/30 08:01:54;;;;;;;14.25;4.30;;;;;;;29.05;45.44;92943.97;5063201;28;20072;-71
2023/07/30 08:04:21;;;;;;;17.50;4.43;;;;;;;29.46;46.03;92941.34;5066051;28;20048;-71
2023/07/30 08:06:49;;;;;;;12.45;4.00;;;;;;;29.82;45.14;92936.25;5064488;28;20051;-71
2023/07/30 08:09:15;;;;;;;13.63;4.60;;;;;;;29.94;43.88;92932.78;5066754;28;20047;-71
2023/07/30 08:11:43;;;;;;;16.23;4.43;;;;;;;30.39;43.35;92938.81;5066574;28;20505;-71
2023/07/30 08:14:10;;;;;;;9.48;3.35;;;;;;;30.56;40.18;92937.72;5069253;28;20040;-70
2023/07/30 08:16:37;;;;;;;5.22;2.13;;;;;;;30.54;38.21;92935.41;5069391;28;20094;-71
2023/07/30 08:19:03;;;;;;;7.43;2.38;;;;;;;30.53;40.46;92939.19;5066236;28;20122;-71
2023/07/30 08:21:30;;;;;;;8.02;3.30;;;;;;;30.52;37.02;92944.81;5069065;28;20567;-72
2023/07/30 08:23:57;;;;;;;5.95;2.20;;;;;;;30.10;39.00;92935.47;5067007;28;20094;-72
2023/07/30 08:26:24;;;;;;;7.47;2.58;;;;;;;29.90;39.51;92939.88;5067502;28;20547;-72
2023/07/30 08:28:54;;;;;;;12.18;3.03;;;;;;;30.26;39.77;92932.84;5069206;28;20045;-72
2023/07/30 08:31:21;;;;;;;13.98;3.47;;;;;;;30.54;39.18;92926.69;5065858;28;20048;-72
2023/07/30 08:33:48;;;;;;;9.63;2.70;;;;;;;30.50;38.38;92931.16;5064803;28;20422;-72
2023/07/30 08:36:14;;;;;;;7.40;2.63;;;;;;;30.87;38.71;92922.16;5068751;28;20049;-72
2023/07/30 08:38:41;;;;;;;8.43;2.63;;;;;;;30.23;37.78;92925.59;5063479;28;20066;-72
2023/07/30 08:41:08;;;;;;;10.82;2.58;;;;;;;30.83;35.70;92923.94;5065508;28;20052;-73
2023/07/30 08:43:35;;;;;;;6.90;2.60;;;;;;;31.45;38.29;92921.47;5066002;28;20630;-72
2023/07/30 08:46:04;;;;;;;7.78;2.10;;;;;;;31.89;36.03;92926.84;5066003;28;20049;-72
2023/07/30 08:48:31;;;;;;;3.67;1.92;;;;;;;32.17;35.46;92921.28;5066195;28;20040;-72
2023/07/30 08:50:58;;;;;;;3.90;2.70;;;;;;;32.28;33.32;92923.31;5063663;28;20052;-70
2023/07/30 08:53:26;;;;;;;3.63;1.80;;;;;;;31.56;33.61;92905.75;5069026;28;20090;-71
2023/07/30 08:55:54;;;;;;;4.63;1.95;;;;;;;31.11;35.49;92920.38;5067904;28;20509;-71
2023/07/30 08:58:22;;;;;;;3.55;1.92;;;;;;;30.59;36.26;92921.13;5065958;28;20060;-71
2023/07/30 09:00:52;;;;;;;3.00;1.35;;;;;;;30.63;37.32;92921.19;5069557;28;20165;-71
2023/07/30 09:03:21;;;;;;;4.18;1.55;;;;;;;30.30;37.25;92901.91;5068490;28;20056;-71
2023/07/30 09:05:48;;;;;;;5.68;2.30;;;;;;;30.85;35.40;92913.75;5068254;28;20056;-71
2023/07/30 09:08:16;;;;;;;4.38;1.90;;;;;;;31.63;36.54;92913.06;5067932;28;20044;-71
2023/07/30 09:10:42;;;;;;;4.65;2.35;;;;;;;32.06;33.80;92913.09;5067346;28;20048;-71
2023/07/30 09:13:09;;;;;;;4.18;1.80;;;;;;;31.97;34.99;92912.56;5066995;28;20106;-72
2023/07/30 09:15:38;;;;;;;5.13;2.38;;;;;;;32.63;35.50;92909.09;5068478;28;20044;-72
2023/07/30 09:18:04;;;;;;;6.13;2.50;;;;;;;33.19;35.35;92894.28;5064839;28;20080;-72
2023/07/30 09:20:42;;;;;;;4.13;2.20;;;;;;;33.31;32.34;92903.94;5067086;28;20125;-72
2023/07/30 09:23:10;;;;;;;10.98;3.20;;;;;;;32.74;33.04;92918.00;5067349;28;20098;-72
2023/07/30 09:25:38;;;;;;;8.90;3.20;;;;;;;32.92;32.16;92920.88;5067096;28;20078;-72
2023/07/30 09:28:06;;;;;;;7.90;2.67;;;;;;;32.91;32.58;92905.28;5067731;28;20048;-72
2023/07/30 09:30:34;;;;;;;5.68;2.40;;;;;;;32.51;33.01;92902.84;5067398;28;20052;-72
2023/07/30 09:33:01;;;;;;;5.85;2.58;;;;;;;32.33;34.50;92899.09;5064336;28;20135;-72
2023/07/30 09:35:27;;;;;;;4.68;2.13;;;;;;;32.30;34.01;92905.88;5064749;28;20044;-73
2023/07/30 09:38:02;;;;;;;3.90;2.13;;;;;;;31.75;33.80;92900.75;5067300;28;20075;-73
2023/07/30 09:40:33;;;;;;;3.58;2.10;;;;;;;32.19;34.19;92892.44;5065890;28;20573;-72
2023/07/30 09:43:00;;;;;;;5.00;2.10;;;;;;;32.89;34.48;92888.91;5064889;28;20090;-72
2023/07/30 09:45:27;;;;;;;4.65;1.92;;;;;;;32.91;33.50;92890.09;5065953;28;20418;-72
2023/07/30 09:47:56;;;;;;;7.80;3.40;;;;;;;33.24;32.84;92884.44;5068036;28;20128;-72
2023/07/30 09:50:23;;;;;;;4.90;1.90;;;;;;;33.65;31.47;92884.53;5065570;28;20097;-72
2023/07/30 09:52:50;;;;;;;5.88;2.47;;;;;;;33.06;32.60;92879.66;5064913;28;20048;-72
2023/07/30 09:55:19;;;;;;;7.32;2.20;;;;;;;33.02;33.00;92878.84;5065913;28;20048;-72
2023/07/30 09:57:46;;;;;;;2.90;1.85;;;;;;;33.17;33.01;92877.91;5067461;28;20040;-72
2023/07/30 10:00:14;;;;;;;3.75;2.03;;;;;;;33.64;32.50;92879.59;5067484;28;20052;-72
2023/07/30 10:02:46;;;;;;;4.85;2.08;;;;;;;32.74;33.00;92880.75;5067223;28;20052;-73
2023/07/30 10:05:16;;;;;;;18.08;3.88;;;;;;;32.31;33.20;92877.44;5067778;28;20105;-72
2023/07/30 10:07:52;;;;;;;3.00;1.85;;;;;;;32.59;33.33;92866.50;5067216;28;20044;-72
2023/07/30 10:10:22;;;;;;;4.90;1.85;;;;;;;31.89;32.71;92869.19;5063292;28;20048;-72
2023/07/30 10:12:51;;;;;;;3.80;2.05;;;;;;;31.66;32.87;92866.47;5062532;28;20048;-73
2023/07/30 10:15:21;;;;;;;5.85;2.10;;;;;;;31.22;33.54;92865.63;5063362;28;20056;-72
2023/07/30 10:17:47;;;;;;;6.65;2.50;;;;;;;31.57;33.84;92859.50;5066921;28;20051;-72
2023/07/30 10:20:22;;;;;;;6.75;2.40;;;;;;;32.28;33.94;92840.94;5066635;28;20102;-73
2023/07/30 10:22:52;;;;;;;8.93;2.53;;;;;;;33.05;34.37;92835.56;5067727;28;20052;-73
2023/07/30 10:25:22;;;;;;;4.80;2.55;;;;;;;33.63;33.65;92846.13;5067150;28;20108;-73
2023/07/30 10:27:51;;;;;;;5.72;2.58;;;;;;;34.22;32.79;92838.28;5067012;28;20041;-72
2023/07/30 10:30:19;;;;;;;9.43;3.33;;;;;;;34.52;31.51;92836.53;5061740;28;20049;-72
2023/07/30 10:33:00;;;;;;;6.65;2.58;;;;;;;34.51;31.80;92827.78;5065350;28;20040;-72
2023/07/30 10:35:38;;;;;;;8.68;3.17;;;;;;;34.99;31.09;92825.38;5066941;28;20098;-72
2023/07/30 10:38:20;;;;;;;5.90;2.35;;;;;;;35.31;31.70;92828.19;5064841;28;20044;-71
2023/07/30 10:41:05;;;;;;;5.07;2.92;;;;;;;35.22;28.89;92825.13;5063709;28;20049;-72
2023/07/30 10:43:35;;;;;;;4.20;2.13;;;;;;;35.52;30.55;92818.72;5065050;28;20066;-72
2023/07/30 10:46:01;;;;;;;5.28;2.60;;;;;;;35.89;29.47;92819.53;5063636;28;20094;-72
2023/07/30 10:48:33;;;;;;;10.18;3.97;;;;;;;36.08;30.82;92817.63;5059517;28;20044;-71
2023/07/30 10:51:01;;;;;;;4.65;2.08;;;;;;;35.86;27.89;92817.63;5062422;28;20045;-72
2023/07/30 10:53:28;;;;;;;5.57;2.50;;;;;;;35.88;29.85;92812.69;5059000;28;20476;-72
2023/07/30 10:55:58;;;;;;;6.00;2.58;;;;;;;36.01;30.14;92812.28;5064449;28;20048;-72
2023/07/30 10:58:27;;;;;;;8.15;2.20;;;;;;;36.17;28.02;92810.03;5063180;28;20316;-72
2023/07/30 11:00:54;;;;;;;4.45;2.35;;;;;;;35.01;30.09;92802.53;5066105;28;20055;-72
2023/07/30 11:03:20;;;;;;;7.22;2.67;;;;;;;35.42;30.60;92801.53;5058373;28;20107;-72
2023/07/30 11:05:48;;;;;;;5.95;2.70;;;;;;;35.70;30.72;92810.00;5061280;28;20645;-73
2023/07/30 11:08:15;;;;;;;7.25;2.17;;;;;;;36.02;29.58;92800.44;5062472;28;20048;-72
2023/07/30 11:10:45;;;;;;;3.95;1.92;;;;;;;35.45;28.80;92794.66;5060457;28;20519;-72
2023/07/30 11:13:13;;;;;;;4.80;2.25;;;;;;;35.51;30.00;92795.06;5060003;28;20055;-72
2023/07/30 11:15:44;;;;;;;4.45;2.10;;;;;;;34.69;30.76;92789.81;5062824;28;20052;-72
2023/07/30 11:18:12;;;;;;;3.58;1.88;;;;;;;34.80;30.51;92779.19;5061121;28;20044;-73
2023/07/30 11:20:39;;;;;;;4.90;2.25;;;;;;;33.19;32.13;92789.72;5063017;28;20126;-72
2023/07/30 11:23:19;;;;;;;3.22;1.80;;;;;;;33.47;31.73;92783.16;5062561;28;20045;-72
2023/07/30 11:25:50;;;;;;;4.72;2.05;;;;;;;33.85;32.06;92780.47;5061907;28;20555;-72
2023/07/30 11:28:29;;;;;;;6.75;2.50;;;;;;;33.77;32.70;92776.97;5056183;28;20048;-72
2023/07/30 11:31:00;;;;;;;5.00;2.15;;;;;;;33.69;32.79;92772.75;5063461;28;20044;-72
2023/07/30 11:33:27;;;;;;;8.15;3.10;;;;;;;33.91;32.66;92763.00;5058476;28;20067;-72